createdAt,value
2018-09-12T04:59:49.533Z,4.10
2018-09-12T05:01:53.320Z,3.90
2018-09-12T05:03:57.164Z,4.42
2018-09-12T05:06:01.076Z,3.95
2018-09-12T05:08:05.431Z,4.22
2018-09-12T05:10:10.451Z,3.98
2018-09-12T05:12:14.399Z,4.30
2018-09-12T05:14:18.619Z,4.58
2018-09-12T05:16:22.607Z,4.85
2018-09-12T05:18:26.532Z,5.12
2018-09-12T05:20:30.384Z,5.30
2018-09-12T05:22:34.652Z,5.10
2018-09-12T05:24:38.772Z,4.67
2018-09-12T05:26:43.122Z,4.80
2018-09-12T05:28:47.172Z,5.40
2018-09-12T05:30:50.825Z,4.62
2018-09-12T05:32:54.748Z,4.90
2018-09-12T05:34:58.723Z,5.75
2018-09-12T05:37:02.944Z,4.92
2018-09-12T05:39:09.833Z,4.40
2018-09-12T05:41:13.739Z,4.55
2018-09-12T05:43:17.827Z,4.83
2018-09-12T05:45:21.454Z,5.22
2018-09-12T05:47:26.079Z,4.90
2018-09-12T05:49:30.286Z,5.45
2018-09-12T05:51:34.332Z,4.90
2018-09-12T05:53:38.471Z,5.90
2018-09-12T05:55:42.756Z,5.37
2018-09-12T05:57:46.776Z,4.30
2018-09-12T05:59:50.720Z,3.20
2018-09-12T06:01:54.630Z,2.52
2018-09-12T06:03:58.669Z,1.92
2018-09-12T06:06:02.703Z,1.60
2018-09-12T06:08:06.893Z,1.02
2018-09-12T06:10:10.983Z,0.80
2018-09-12T06:12:14.828Z,0.57
2018-09-12T06:14:18.979Z,0.60
2018-09-12T06:16:22.998Z,0.60
2018-09-12T06:18:27.121Z,0.60
2018-09-12T06:20:31.161Z,0.60
2018-09-12T06:22:39.759Z,0.60
2018-09-12T06:24:43.784Z,0.53
2018-09-12T06:26:48.479Z,0.55
2018-09-12T06:28:52.472Z,0.50
2018-09-12T06:30:56.476Z,0.50
2018-09-12T06:33:00.475Z,0.80
2018-09-12T06:35:04.751Z,0.50
2018-09-12T06:37:08.840Z,0.47
2018-09-12T06:39:13.628Z,0.42
2018-09-12T06:41:17.667Z,0.40
2018-09-12T06:43:21.596Z,0.40
2018-09-12T06:45:25.626Z,0.50
2018-09-12T06:47:29.561Z,0.40
2018-09-12T06:49:33.678Z,0.60
2018-09-12T06:51:38.550Z,0.60
2018-09-12T06:53:42.618Z,0.68
2018-09-12T06:55:46.564Z,0.53
2018-09-12T06:57:50.196Z,0.55
2018-09-12T06:59:54.123Z,0.60
2018-09-12T07:01:58.060Z,0.60
2018-09-12T07:04:02.104Z,0.80
2018-09-12T07:06:06.220Z,0.68
2018-09-12T07:08:10.514Z,0.70
2018-09-12T07:10:14.606Z,0.90
2018-09-12T07:12:18.712Z,0.78
2018-09-12T07:14:22.654Z,0.82
2018-09-12T07:16:26.584Z,0.93
2018-09-12T07:18:30.575Z,1.10
2018-09-12T07:20:34.620Z,0.90
2018-09-12T07:22:38.692Z,1.00
2018-09-12T07:24:42.577Z,0.85
2018-09-12T07:26:46.481Z,0.80
2018-09-12T07:28:50.628Z,1.07
2018-09-12T07:30:54.445Z,0.93
2018-09-12T07:32:58.284Z,0.90
2018-09-12T07:35:02.272Z,0.90
2018-09-12T07:37:06.565Z,1.02
2018-09-12T07:39:12.337Z,1.20
2018-09-12T07:41:16.296Z,1.05
2018-09-12T07:43:20.136Z,1.00
2018-09-12T07:45:23.973Z,1.17
2018-09-12T07:47:28.033Z,1.30
2018-09-12T07:49:33.323Z,1.40
2018-09-12T07:51:37.801Z,2.15
2018-09-12T07:53:41.815Z,1.40
2018-09-12T07:55:45.819Z,1.80
2018-09-12T07:57:49.795Z,1.90
2018-09-12T07:59:53.996Z,1.55
2018-09-12T08:01:57.979Z,1.70
2018-09-12T08:04:01.707Z,1.65
2018-09-12T08:06:05.539Z,2.08
2018-09-12T08:08:09.360Z,1.65
2018-09-12T08:10:13.051Z,1.85
2018-09-12T08:12:16.743Z,1.72
2018-09-12T08:14:20.143Z,1.85
2018-09-12T08:16:24.311Z,1.47
2018-09-12T08:18:28.392Z,1.52
2018-09-12T08:20:32.434Z,1.82
2018-09-12T08:22:36.811Z,1.75
2018-09-12T08:24:40.810Z,1.45
2018-09-12T08:26:44.872Z,1.45
2018-09-12T08:28:48.643Z,1.20
2018-09-12T08:30:52.676Z,1.07
2018-09-12T08:32:56.591Z,0.93
2018-09-12T08:35:00.558Z,1.15
2018-09-12T08:37:04.812Z,0.90
2018-09-12T08:39:09.441Z,0.70
2018-09-12T08:41:13.188Z,0.90
2018-09-12T08:43:16.883Z,0.70
2018-09-12T08:45:20.479Z,0.90
2018-09-12T08:47:24.052Z,0.90
2018-09-12T08:49:28.614Z,0.70
2018-09-12T08:51:32.660Z,0.62
2018-09-12T08:53:36.710Z,0.90
2018-09-12T08:55:40.361Z,0.60
2018-09-12T08:57:44.435Z,0.73
2018-09-12T08:59:48.251Z,0.93
2018-09-12T09:01:52.135Z,0.90
2018-09-12T09:03:56.076Z,1.00
2018-09-12T09:05:59.963Z,1.20
2018-09-12T09:08:05.149Z,1.00
2018-09-12T09:10:09.405Z,1.70
2018-09-12T09:12:13.285Z,0.93
2018-09-12T09:14:17.355Z,1.05
2018-09-12T09:16:21.337Z,1.00
2018-09-12T09:18:25.337Z,1.00
2018-09-12T09:20:29.287Z,1.65
2018-09-12T09:22:33.863Z,0.75
2018-09-12T09:24:37.832Z,0.80
2018-09-12T09:26:42.351Z,1.40
2018-09-12T09:28:46.259Z,1.00
2018-09-12T09:30:50.292Z,1.10
2018-09-12T09:32:54.243Z,1.25
2018-09-12T09:34:58.354Z,1.02
2018-09-12T09:37:03.755Z,1.07
2018-09-12T09:39:10.125Z,0.98
2018-09-12T09:41:15.245Z,1.00
2018-09-12T09:43:19.716Z,1.27
2018-09-12T09:45:23.781Z,0.95
2018-09-12T09:47:27.784Z,1.42
2018-09-12T09:49:33.826Z,0.90
2018-09-12T09:51:37.708Z,1.47
2018-09-12T09:53:41.880Z,1.22
2018-09-12T09:55:46.097Z,0.80
2018-09-12T09:57:50.057Z,0.72
2018-09-12T09:59:54.328Z,1.02
2018-09-12T10:03:02.512Z,0.70
2018-09-12T10:05:14.005Z,0.75
2018-09-12T10:07:23.419Z,0.80
2018-09-12T10:09:29.990Z,0.80
2018-09-12T10:11:35.563Z,0.42
2018-09-12T10:13:39.641Z,0.60
2018-09-12T10:15:43.717Z,1.00
2018-09-12T10:17:47.599Z,0.70
2018-09-12T10:19:51.486Z,0.70
2018-09-12T10:21:55.525Z,0.60
2018-09-12T10:23:59.859Z,0.75
2018-09-12T10:26:04.132Z,0.72
2018-09-12T10:28:08.117Z,0.70
2018-09-12T10:30:12.500Z,0.70
2018-09-12T10:32:16.584Z,0.70
2018-09-12T10:34:20.486Z,0.90
2018-09-12T10:36:24.496Z,0.98
2018-09-12T10:38:28.486Z,1.00
2018-09-12T10:40:32.527Z,2.15
2018-09-12T10:42:37.034Z,6.50
2018-09-12T10:44:41.470Z,7.12
2018-09-12T10:46:45.498Z,2.00
2018-09-12T10:48:49.531Z,2.80
2018-09-12T10:50:53.447Z,1.70
2018-09-12T10:52:57.310Z,2.12
2018-09-12T10:55:01.275Z,1.80
2018-09-12T10:57:05.455Z,1.30
2018-09-12T10:59:09.518Z,1.15
2018-09-12T11:01:13.562Z,0.80
2018-09-12T11:03:17.585Z,0.90
2018-09-12T11:05:21.544Z,0.90
2018-09-12T11:07:25.475Z,0.70
2018-09-12T11:09:29.384Z,0.70
2018-09-12T11:11:33.494Z,0.60
2018-09-12T11:13:37.931Z,0.70
2018-09-12T11:15:42.256Z,0.82
2018-09-12T11:17:46.203Z,0.80
2018-09-12T11:19:50.914Z,0.90
2018-09-12T11:21:54.877Z,1.02
2018-09-12T11:23:58.890Z,1.00
2018-09-12T11:26:02.819Z,1.07
2018-09-12T11:28:07.039Z,1.05
2018-09-12T11:30:11.044Z,1.27
2018-09-12T11:32:15.144Z,1.10
2018-09-12T11:34:18.987Z,1.15
2018-09-12T11:36:23.028Z,1.15
2018-09-12T11:38:26.930Z,0.90
2018-09-12T11:40:30.877Z,0.85
2018-09-12T11:42:34.923Z,0.90
2018-09-12T11:44:38.827Z,0.70
2018-09-12T11:46:42.715Z,0.68
2018-09-12T11:48:46.746Z,0.82
2018-09-12T11:50:50.724Z,0.90
2018-09-12T11:52:54.786Z,0.90
2018-09-12T11:54:58.899Z,1.00
2018-09-12T11:57:04.162Z,0.72
2018-09-12T11:59:08.336Z,0.60
2018-09-12T12:01:12.395Z,0.45
2018-09-12T12:03:16.407Z,0.40
2018-09-12T12:05:20.346Z,0.40
2018-09-12T12:07:24.327Z,0.50
2018-09-12T12:09:28.332Z,0.40
2018-09-12T12:11:32.511Z,0.42
2018-09-12T12:13:36.857Z,0.50
2018-09-12T12:15:41.364Z,0.57
2018-09-12T12:17:45.356Z,0.30
2018-09-12T12:19:49.308Z,0.50
2018-09-12T12:21:53.302Z,0.42
2018-09-12T12:23:57.235Z,0.50
2018-09-12T12:26:03.360Z,0.50
2018-09-12T12:28:07.292Z,0.65
2018-09-12T12:30:11.727Z,0.50
2018-09-12T12:32:15.905Z,0.30
2018-09-12T12:34:19.778Z,0.30
2018-09-12T12:36:23.827Z,0.40
2018-09-12T12:38:27.767Z,0.40
2018-09-12T12:40:32.743Z,0.50
2018-09-12T12:42:37.997Z,0.70
2018-09-12T12:44:42.193Z,0.60
2018-09-12T12:46:46.178Z,0.50
2018-09-12T12:48:50.108Z,0.60
2018-09-12T12:50:54.226Z,0.50
2018-09-12T12:52:58.159Z,0.40
2018-09-12T12:55:02.304Z,0.55
2018-09-12T12:57:06.740Z,0.70
2018-09-12T12:59:10.738Z,0.50
2018-09-12T13:01:16.715Z,0.50
2018-09-12T13:03:20.733Z,0.50
2018-09-12T13:05:24.699Z,0.60
2018-09-12T13:07:28.669Z,0.62
2018-09-12T13:09:32.820Z,0.62
2018-09-12T13:11:37.099Z,0.80
2018-09-12T13:13:41.330Z,0.78
2018-09-12T13:15:45.286Z,0.70
2018-09-12T13:17:49.264Z,1.05
2018-09-12T13:19:53.195Z,0.57
2018-09-12T13:21:57.258Z,0.70
2018-09-12T13:24:01.207Z,0.60
2018-09-12T13:26:05.747Z,0.82
2018-09-12T13:28:10.097Z,0.70
2018-09-12T13:30:14.130Z,0.95
2018-09-12T13:32:18.120Z,0.80
2018-09-12T13:34:23.187Z,0.70
2018-09-12T13:36:27.258Z,1.07
2018-09-12T13:38:31.497Z,0.88
2018-09-12T13:40:35.771Z,0.82
2018-09-12T13:42:41.230Z,1.15
2018-09-12T13:44:45.200Z,0.95
2018-09-12T13:46:49.213Z,0.90
2018-09-12T13:48:53.234Z,0.90
2018-09-12T13:50:57.516Z,1.07
2018-09-12T13:53:02.628Z,1.10
2018-09-12T13:55:06.793Z,1.12
2018-09-12T13:57:11.294Z,1.00
2018-09-12T13:59:15.169Z,0.93
2018-09-12T14:01:19.212Z,1.00
2018-09-12T14:03:23.218Z,1.00
2018-09-12T14:05:27.160Z,1.10
2018-09-12T14:07:31.248Z,1.05
2018-09-12T14:09:35.433Z,1.00
2018-09-12T14:11:39.605Z,1.20
2018-09-12T14:13:43.615Z,1.02
2018-09-12T14:15:47.652Z,1.10
2018-09-12T14:17:52.228Z,1.32
2018-09-12T14:19:56.177Z,0.98
2018-09-12T14:22:00.292Z,1.02
2018-09-12T14:24:04.483Z,0.88
2018-09-12T14:26:09.635Z,1.12
2018-09-12T14:28:13.898Z,1.07
2018-09-12T14:30:17.893Z,1.00
2018-09-12T14:32:21.772Z,1.00
2018-09-12T14:34:25.668Z,0.85
2018-09-12T14:36:29.635Z,0.85
2018-09-12T14:38:33.742Z,0.80
2018-09-12T14:40:37.755Z,0.88
2018-09-12T14:42:41.958Z,1.00
2018-09-12T14:44:45.885Z,1.17
2018-09-12T14:46:49.831Z,0.98
2018-09-12T14:48:53.677Z,1.02
2018-09-12T14:50:57.560Z,1.12
2018-09-12T14:53:02.129Z,1.10
2018-09-12T14:55:06.610Z,1.30
2018-09-12T14:57:10.784Z,0.93
2018-09-12T14:59:14.881Z,0.90
2018-09-12T15:01:18.884Z,1.20
2018-09-12T15:03:23.357Z,1.00
2018-09-12T15:05:27.303Z,1.00
2018-09-12T15:07:31.678Z,1.05
2018-09-12T15:09:35.687Z,1.30
2018-09-12T15:11:40.294Z,1.20
2018-09-12T15:13:44.274Z,1.15
2018-09-12T15:15:48.094Z,1.20
2018-09-12T15:17:52.132Z,0.85
2018-09-12T15:19:56.120Z,1.40
2018-09-12T15:21:59.920Z,1.07
2018-09-12T15:24:04.231Z,1.10
2018-09-12T15:26:08.516Z,1.30
2018-09-12T15:28:12.645Z,1.30
2018-09-12T15:30:16.531Z,1.00
2018-09-12T15:32:20.523Z,1.10
2018-09-12T15:34:24.554Z,1.15
2018-09-12T15:36:28.516Z,0.90
2018-09-12T15:38:33.941Z,1.32
2018-09-12T15:40:38.111Z,1.10
2018-09-12T15:42:42.263Z,1.10
2018-09-12T15:44:46.456Z,0.98
2018-09-12T15:46:50.495Z,1.12
2018-09-12T15:48:54.457Z,26.23
2018-09-12T15:50:58.494Z,30.68
2018-09-12T15:53:02.616Z,53.45
2018-09-12T15:55:06.621Z,22.82
2018-09-12T15:57:10.786Z,38.90
2018-09-12T15:59:14.900Z,1.60
2018-09-12T16:01:18.819Z,5.45
2018-09-12T16:03:22.906Z,2.02
2018-09-12T16:05:26.815Z,1.30
2018-09-12T16:07:30.827Z,5.47
2018-09-12T16:09:35.156Z,1.17
2018-09-12T16:11:39.574Z,0.90
2018-09-12T16:13:43.443Z,1.10
2018-09-12T16:15:47.373Z,1.10
2018-09-12T16:17:51.352Z,1.00
2018-09-12T16:21:19.720Z,0.90
2018-09-12T16:23:23.847Z,1.17
2018-09-12T16:25:27.783Z,1.17
2018-09-12T16:27:31.761Z,0.85
2018-09-12T16:29:35.900Z,1.60
2018-09-12T16:31:40.096Z,1.15
2018-09-12T16:33:44.015Z,1.15
2018-09-12T16:35:47.828Z,1.25
2018-09-12T16:37:51.695Z,1.30
2018-09-12T16:39:55.715Z,1.10
2018-09-12T16:41:59.564Z,1.20
2018-09-12T16:44:04.316Z,1.62
2018-09-12T16:46:08.732Z,1.22
2018-09-12T16:48:13.193Z,1.40
2018-09-12T16:50:17.226Z,1.40
2018-09-12T16:52:21.435Z,1.65
2018-09-12T16:54:25.311Z,1.60
2018-09-12T16:56:29.532Z,1.60
2018-09-12T16:58:34.188Z,1.60
2018-09-12T17:00:38.238Z,1.42
2018-09-12T17:02:42.923Z,1.65
2018-09-12T17:04:47.064Z,1.30
2018-09-12T17:06:52.068Z,1.17
2018-09-12T17:08:56.163Z,1.12
2018-09-12T17:11:00.069Z,1.10
2018-09-12T17:13:05.240Z,1.07
2018-09-12T17:15:09.428Z,1.07
2018-09-12T17:17:13.435Z,0.98
2018-09-12T17:19:17.412Z,1.20
2018-09-12T17:21:21.371Z,1.47
2018-09-12T17:23:25.361Z,1.00
2018-09-12T17:25:29.181Z,0.80
2018-09-12T17:27:33.632Z,1.12
2018-09-12T17:29:37.945Z,1.10
2018-09-12T17:31:42.204Z,1.00
2018-09-12T17:33:46.075Z,1.15
2018-09-12T17:35:50.022Z,1.07
2018-09-12T17:37:54.091Z,1.30
2018-09-12T17:39:58.017Z,1.17
2018-09-12T17:42:02.623Z,2.30
2018-09-12T17:44:07.681Z,1.72
2018-09-12T17:46:12.019Z,2.40
2018-09-12T17:48:16.011Z,1.87
2018-09-12T17:50:20.024Z,2.37
2018-09-12T17:52:23.898Z,3.47
2018-09-12T17:54:27.900Z,2.72
2018-09-12T17:56:32.162Z,8.23
2018-09-12T17:58:36.186Z,3.72
2018-09-12T18:00:40.586Z,4.00
2018-09-12T18:02:44.462Z,3.30
2018-09-12T18:04:48.586Z,3.15
2018-09-12T18:06:52.624Z,4.10
2018-09-12T18:08:56.584Z,5.87
2018-09-12T18:11:00.555Z,3.00
2018-09-12T18:13:04.564Z,1.60
2018-09-12T18:15:09.831Z,1.87
2018-09-12T18:17:13.819Z,1.82
2018-09-12T18:19:17.795Z,1.67
2018-09-12T18:21:21.801Z,1.72
2018-09-12T18:23:25.754Z,2.10
2018-09-12T18:25:29.905Z,1.90
2018-09-12T18:27:35.153Z,1.70
2018-09-12T18:29:39.298Z,1.30
2018-09-12T18:31:43.253Z,1.52
2018-09-12T18:33:47.224Z,1.40
2018-09-12T18:35:51.241Z,1.45
2018-09-12T18:37:55.236Z,1.42
2018-09-12T18:39:59.255Z,1.47
2018-09-12T18:42:03.588Z,1.30
2018-09-12T18:44:08.143Z,1.60
2018-09-12T18:46:12.022Z,2.02
2018-09-12T18:48:15.985Z,4.10
2018-09-12T18:50:19.923Z,5.50
2018-09-12T18:52:24.813Z,3.83
2018-09-12T18:54:28.856Z,2.15
2018-09-12T18:56:33.890Z,3.77
2018-09-12T18:58:37.974Z,4.62
2018-09-12T19:00:42.524Z,3.85
2018-09-12T19:02:46.423Z,3.20
2018-09-12T19:04:50.319Z,2.17
2018-09-12T19:06:54.536Z,2.30
2018-09-12T19:08:58.311Z,1.92
2018-09-12T19:11:02.410Z,2.20
2018-09-12T19:13:06.771Z,1.65
2018-09-12T19:15:10.827Z,1.70
2018-09-12T19:17:14.852Z,1.62
2018-09-12T19:19:18.830Z,1.62
2018-09-12T19:21:23.794Z,1.97
2018-09-12T19:23:27.792Z,1.70
2018-09-12T19:25:31.971Z,1.53
2018-09-12T19:27:37.112Z,1.37
2018-09-12T19:29:42.612Z,1.37
2018-09-12T19:31:46.616Z,1.55
2018-09-12T19:33:50.642Z,1.98
2018-09-12T19:35:54.400Z,1.20
2018-09-12T19:37:58.382Z,1.35
2018-09-12T19:40:02.408Z,1.70
2018-09-12T19:42:07.468Z,1.40
2018-09-12T19:44:11.355Z,1.25
2018-09-12T19:46:15.178Z,2.02
2018-09-12T19:48:19.173Z,1.00
2018-09-12T19:50:23.147Z,1.72
2018-09-12T19:52:27.095Z,1.40
2018-09-12T19:54:31.259Z,1.52
2018-09-12T19:56:35.828Z,1.57
2018-09-12T19:58:39.925Z,1.80
2018-09-12T20:00:43.888Z,1.80
2018-09-12T20:02:47.925Z,1.85
2018-09-12T20:04:51.825Z,1.60
2018-09-12T20:06:55.792Z,2.00
2018-09-12T20:08:59.700Z,1.85
2018-09-12T20:11:04.223Z,1.40
2018-09-12T20:13:08.453Z,2.20
2018-09-12T20:15:12.494Z,1.90
2018-09-12T20:17:16.353Z,1.80
2018-09-12T20:19:20.368Z,1.85
2018-09-12T20:21:24.283Z,1.50
2018-09-12T20:23:29.357Z,1.70
2018-09-12T20:25:33.756Z,1.77
2018-09-12T20:27:37.875Z,2.27
2018-09-12T20:29:43.091Z,1.57
2018-09-12T20:31:47.179Z,1.65
2018-09-12T20:33:51.207Z,1.72
2018-09-12T20:35:55.090Z,1.77
2018-09-12T20:37:59.202Z,2.80
2018-09-12T20:40:03.533Z,1.80
2018-09-12T20:42:08.387Z,2.00
2018-09-12T20:44:12.435Z,1.62
2018-09-12T20:46:16.740Z,1.70
2018-09-12T20:48:20.686Z,1.60
2018-09-12T20:50:24.534Z,1.82
2018-09-12T20:52:28.495Z,1.67
2018-09-12T20:54:32.595Z,1.45
2018-09-12T20:56:36.777Z,2.10
2018-09-12T20:58:40.715Z,1.55
2018-09-12T21:00:44.804Z,1.92
2018-09-12T21:02:48.947Z,1.50
2018-09-12T21:04:52.941Z,1.95
2018-09-12T21:06:56.741Z,1.80
2018-09-12T21:09:00.648Z,1.70
2018-09-12T21:11:04.968Z,2.00
2018-09-12T21:13:09.239Z,1.83
2018-09-12T21:15:13.153Z,1.50
2018-09-12T21:17:17.389Z,1.60
2018-09-12T21:19:21.570Z,1.80
2018-09-12T21:21:25.564Z,2.30
2018-09-12T21:23:29.928Z,1.95
2018-09-12T21:25:34.173Z,1.80
2018-09-12T21:27:38.277Z,1.82
2018-09-12T21:29:42.412Z,1.62
2018-09-12T21:31:46.472Z,1.90
2018-09-12T21:33:50.589Z,1.57
2018-09-12T21:35:55.592Z,1.52
2018-09-12T21:37:59.630Z,1.90
2018-09-12T21:40:05.160Z,2.22
2018-09-12T21:42:09.356Z,1.60
2018-09-12T21:44:13.696Z,1.70
2018-09-12T21:46:18.029Z,1.77
2018-09-12T21:48:22.345Z,1.75
2018-09-12T21:50:26.172Z,1.57
2018-09-12T21:52:30.484Z,1.80
2018-09-12T21:54:35.353Z,2.00
2018-09-12T21:56:39.545Z,1.62
2018-09-12T21:58:43.638Z,2.00
2018-09-12T22:00:47.624Z,1.70
2018-09-12T22:02:51.783Z,1.72
2018-09-12T22:04:56.874Z,1.87
2018-09-12T22:07:02.696Z,1.90
2018-09-12T22:09:12.042Z,1.65
2018-09-12T22:11:15.956Z,1.47
2018-09-12T22:13:21.079Z,1.60
2018-09-12T22:15:25.261Z,1.57
2018-09-12T22:17:29.064Z,1.80
2018-09-12T22:19:33.283Z,1.57
2018-09-12T22:21:37.508Z,1.67
2018-09-12T22:23:41.943Z,1.77
2018-09-12T22:25:45.936Z,1.67
2018-09-12T22:27:50.059Z,1.60
2018-09-12T22:29:54.011Z,1.70
2018-09-12T22:31:57.888Z,1.70
2018-09-12T22:34:02.119Z,1.80
2018-09-12T22:36:07.032Z,1.70
2018-09-12T22:38:11.452Z,1.70
2018-09-12T22:40:15.459Z,1.50
2018-09-12T22:42:19.701Z,1.90
2018-09-12T22:44:23.923Z,1.70
2018-09-12T22:46:27.883Z,1.60
2018-09-12T22:48:32.524Z,1.63
2018-09-12T22:50:36.518Z,1.62
2018-09-12T22:52:40.719Z,1.50
2018-09-12T22:54:47.516Z,1.70
2018-09-12T22:56:51.475Z,1.90
2018-09-12T22:58:55.755Z,1.77
2018-09-12T23:00:59.953Z,1.47
2018-09-12T23:03:06.166Z,1.83
2018-09-12T23:05:10.699Z,1.60
2018-09-12T23:07:15.422Z,1.80
2018-09-12T23:09:19.465Z,1.47
2018-09-12T23:11:23.971Z,1.40
2018-09-12T23:13:27.866Z,1.40
2018-09-12T23:15:32.957Z,1.43
2018-09-12T23:17:40.259Z,1.45
2018-09-12T23:19:45.319Z,1.50
2018-09-12T23:21:50.204Z,1.30
2018-09-12T23:23:54.306Z,1.67
2018-09-12T23:25:58.534Z,1.43
2018-09-12T23:28:02.578Z,1.62
2018-09-12T23:30:06.696Z,1.60
2018-09-12T23:32:10.890Z,1.60
2018-09-12T23:34:15.996Z,1.97
2018-09-12T23:36:20.520Z,1.70
2018-09-12T23:38:24.405Z,1.80
2018-09-12T23:40:28.328Z,1.80
2018-09-12T23:42:32.462Z,1.82
2018-09-12T23:44:37.373Z,1.72
2018-09-12T23:46:43.401Z,1.60
2018-09-12T23:48:47.443Z,1.70
2018-09-12T23:50:51.822Z,1.50
2018-09-12T23:52:55.772Z,1.40
2018-09-12T23:54:59.976Z,1.60
2018-09-12T23:57:06.375Z,1.50
2018-09-12T23:59:14.823Z,2.07
